sensor_id;sensor_type;location;lat;lon;timestamp;pressure;altitude;pressure_sealevel;temperature;humidity
70571;BME280;58135;50.948;-1.458;2022-07-29T00:02:06;101424.34;;;18.33;12.04
70571;BME280;58135;50.948;-1.458;2022-07-29T00:04:34;101419.60;;;15.14;12.23
70571;BME280;58135;50.948;-1.458;2022-07-29T00:06:57;101417.42;;;18.85;12.08
70571;BME280;58135;50.948;-1.458;2022-07-29T00:09:22;101416.99;;;16.27;12.27
70571;BME280;58135;50.948;-1.458;2022-07-29T00:11:48;101417.96;;;18.87;12.12
70571;BME280;58135;50.948;-1.458;2022-07-29T00:14:13;101417.74;;;17.07;12.18
70571;BME280;58135;50.948;-1.458;2022-07-29T00:16:39;101418.80;;;17.01;12.24
70571;BME280;58135;50.948;-1.458;2022-07-29T00:19:05;101416.60;;;17.72;12.14
70571;BME280;58135;50.948;-1.458;2022-07-29T00:21:30;101413.12;;;15.93;12.39
70571;BME280;58135;50.948;-1.458;2022-07-29T00:23:55;101411.70;;;17.54;11.69
70571;BME280;58135;50.948;-1.458;2022-07-29T00:26:22;101410.78;;;15.52;12.23
70571;BME280;58135;50.948;-1.458;2022-07-29T00:28:46;101411.58;;;17.95;12.08
70571;BME280;58135;50.948;-1.458;2022-07-29T00:31:12;101410.76;;;18.70;11.91
70571;BME280;58135;50.948;-1.458;2022-07-29T00:33:37;101412.15;;;17.80;12.71
70571;BME280;58135;50.948;-1.458;2022-07-29T00:36:04;101413.14;;;16.99;12.71
70571;BME280;58135;50.948;-1.458;2022-07-29T00:38:28;101411.78;;;18.02;12.35
70571;BME280;58135;50.948;-1.458;2022-07-29T00:40:54;101409.79;;;18.86;12.66
70571;BME280;58135;50.948;-1.458;2022-07-29T00:43:19;101407.27;;;16.19;12.56
70571;BME280;58135;50.948;-1.458;2022-07-29T00:45:45;101406.44;;;18.93;12.47
70571;BME280;58135;50.948;-1.458;2022-07-29T00:48:11;101405.71;;;16.29;12.56
70571;BME280;58135;50.948;-1.458;2022-07-29T00:50:36;101403.07;;;17.08;12.03
70571;BME280;58135;50.948;-1.458;2022-07-29T00:53:03;101400.41;;;16.99;12.66
70571;BME280;58135;50.948;-1.458;2022-07-29T00:55:28;101400.33;;;16.07;12.62
70571;BME280;58135;50.948;-1.458;2022-07-29T00:57:53;101397.54;;;17.82;12.36
70571;BME280;58135;50.948;-1.458;2022-07-29T01:00:20;101397.03;;;17.71;12.87
70571;BME280;58135;50.948;-1.458;2022-07-29T01:02:49;101396.35;;;18.69;13.05
70571;BME280;58135;50.948;-1.458;2022-07-29T01:05:11;101394.05;;;16.82;13.06
70571;BME280;58135;50.948;-1.458;2022-07-29T01:07:36;101392.04;;;17.76;13.01
70571;BME280;58135;50.948;-1.458;2022-07-29T01:10:02;101390.24;;;17.66;12.67
70571;BME280;58135;50.948;-1.458;2022-07-29T01:12:27;101389.39;;;18.37;12.57
70571;BME280;58135;50.948;-1.458;2022-07-29T01:14:53;101388.82;;;17.35;12.79
70571;BME280;58135;50.948;-1.458;2022-07-29T01:17:21;101388.17;;;17.35;12.61
70571;BME280;58135;50.948;-1.458;2022-07-29T01:19:49;101386.86;;;18.32;13.04
70571;BME280;58135;50.948;-1.458;2022-07-29T01:22:20;101390.19;;;14.93;13.15
70571;BME280;58135;50.948;-1.458;2022-07-29T01:24:47;101389.27;;;15.66;12.70
70571;BME280;58135;50.948;-1.458;2022-07-29T01:27:06;101389.49;;;17.24;12.83
70571;BME280;58135;50.948;-1.458;2022-07-29T01:29:29;101387.09;;;15.15;12.86
70571;BME280;58135;50.948;-1.458;2022-07-29T01:31:55;101386.11;;;17.16;12.81
70571;BME280;58135;50.948;-1.458;2022-07-29T01:34:19;101389.16;;;18.15;12.33
70571;BME280;58135;50.948;-1.458;2022-07-29T01:36:43;101389.28;;;17.27;13.07
70571;BME280;58135;50.948;-1.458;2022-07-29T01:39:10;101390.88;;;16.47;13.06
70571;BME280;58135;50.948;-1.458;2022-07-29T01:41:36;101391.13;;;16.30;13.11
70571;BME280;58135;50.948;-1.458;2022-07-29T01:44:02;101388.63;;;15.25;13.12
70571;BME280;58135;50.948;-1.458;2022-07-29T01:46:28;101390.57;;;15.04;13.03
70571;BME280;58135;50.948;-1.458;2022-07-29T01:48:54;101394.61;;;16.84;13.26
70571;BME280;58135;50.948;-1.458;2022-07-29T01:51:18;101397.64;;;17.81;13.35
70571;BME280;58135;50.948;-1.458;2022-07-29T01:53:46;101399.44;;;15.97;13.11
70571;BME280;58135;50.948;-1.458;2022-07-29T01:56:08;101397.09;;;17.62;13.28
70571;BME280;58135;50.948;-1.458;2022-07-29T01:58:32;101396.42;;;16.61;12.92
70571;BME280;58135;50.948;-1.458;2022-07-29T02:00:58;101394.51;;;17.58;13.12
70571;BME280;58135;50.948;-1.458;2022-07-29T02:03:23;101395.62;;;16.77;12.82
70571;BME280;58135;50.948;-1.458;2022-07-29T02:05:50;101401.58;;;15.72;13.56
70571;BME280;58135;50.948;-1.458;2022-07-29T02:08:15;101411.02;;;18.05;13.61
70571;BME280;58135;50.948;-1.458;2022-07-29T02:10:41;101414.23;;;17.81;13.71
70571;BME280;58135;50.948;-1.458;2022-07-29T02:13:07;101412.62;;;15.73;13.50
70571;BME280;58135;50.948;-1.458;2022-07-29T02:15:32;101411.49;;;15.69;13.77
70571;BME280;58135;50.948;-1.458;2022-07-29T02:18:00;101413.44;;;17.50;14.01
70571;BME280;58135;50.948;-1.458;2022-07-29T02:20:22;101414.15;;;17.92;13.99
70571;BME280;58135;50.948;-1.458;2022-07-29T02:22:48;101411.75;;;17.16;14.00
70571;BME280;58135;50.948;-1.458;2022-07-29T02:25:14;101407.69;;;16.92;13.28
70571;BME280;58135;50.948;-1.458;2022-07-29T02:27:39;101405.87;;;17.25;13.83
70571;BME280;58135;50.948;-1.458;2022-07-29T02:30:10;101401.48;;;14.92;13.88
70571;BME280;58135;50.948;-1.458;2022-07-29T02:32:31;101398.71;;;16.03;13.80
70571;BME280;58135;50.948;-1.458;2022-07-29T02:34:56;101403.05;;;16.99;13.75
70571;BME280;58135;50.948;-1.458;2022-07-29T02:37:21;101402.96;;;15.98;13.27
70571;BME280;58135;50.948;-1.458;2022-07-29T02:39:47;101405.55;;;16.74;14.03
70571;BME280;58135;50.948;-1.458;2022-07-29T02:42:15;101409.22;;;14.64;13.94
70571;BME280;58135;50.948;-1.458;2022-07-29T02:44:38;101406.06;;;16.58;13.73
70571;BME280;58135;50.948;-1.458;2022-07-29T02:47:09;101408.76;;;17.35;13.39
70571;BME280;58135;50.948;-1.458;2022-07-29T02:49:35;101411.03;;;16.55;13.97
70571;BME280;58135;50.948;-1.458;2022-07-29T02:51:58;101412.96;;;16.64;14.02
70571;BME280;58135;50.948;-1.458;2022-07-29T02:54:31;101408.51;;;15.21;14.01
70571;BME280;58135;50.948;-1.458;2022-07-29T02:56:46;101406.15;;;14.87;13.89
70571;BME280;58135;50.948;-1.458;2022-07-29T02:59:11;101413.47;;;16.26;13.90
70571;BME280;58135;50.948;-1.458;2022-07-29T03:01:42;101414.41;;;15.12;14.37
70571;BME280;58135;50.948;-1.458;2022-07-29T03:04:04;101411.46;;;13.81;14.44
70571;BME280;58135;50.948;-1.458;2022-07-29T03:06:28;101407.06;;;14.55;14.20
70571;BME280;58135;50.948;-1.458;2022-07-29T03:08:54;101405.97;;;15.78;14.15
70571;BME280;58135;50.948;-1.458;2022-07-29T03:11:18;101405.62;;;15.20;14.47
70571;BME280;58135;50.948;-1.458;2022-07-29T03:13:44;101403.46;;;15.66;14.18
70571;BME280;58135;50.948;-1.458;2022-07-29T03:16:11;101400.89;;;15.54;14.19
70571;BME280;58135;50.948;-1.458;2022-07-29T03:18:36;101391.83;;;16.13;13.90
70571;BME280;58135;50.948;-1.458;2022-07-29T03:21:02;101386.65;;;15.84;14.55
70571;BME280;58135;50.948;-1.458;2022-07-29T03:23:27;101386.23;;;14.11;14.60
70571;BME280;58135;50.948;-1.458;2022-07-29T03:25:53;101392.04;;;15.48;14.64
70571;BME280;58135;50.948;-1.458;2022-07-29T03:28:18;101394.53;;;15.18;14.85
70571;BME280;58135;50.948;-1.458;2022-07-29T03:30:44;101391.34;;;17.15;14.73
70571;BME280;58135;50.948;-1.458;2022-07-29T03:33:10;101399.04;;;14.82;14.95
70571;BME280;58135;50.948;-1.458;2022-07-29T03:35:35;101403.58;;;15.75;15.03
70571;BME280;58135;50.948;-1.458;2022-07-29T03:38:06;101404.94;;;14.88;15.09
70571;BME280;58135;50.948;-1.458;2022-07-29T03:40:31;101410.14;;;14.21;14.47
70571;BME280;58135;50.948;-1.458;2022-07-29T03:42:54;101413.73;;;15.51;15.20
70571;BME280;58135;50.948;-1.458;2022-07-29T03:45:18;101414.30;;;13.42;14.93
70571;BME280;58135;50.948;-1.458;2022-07-29T03:47:48;101412.33;;;16.60;14.39
70571;BME280;58135;50.948;-1.458;2022-07-29T03:50:11;101409.55;;;16.81;14.03
70571;BME280;58135;50.948;-1.458;2022-07-29T03:52:34;101412.34;;;15.25;13.89
70571;BME280;58135;50.948;-1.458;2022-07-29T03:55:05;101409.54;;;17.26;13.83
70571;BME280;58135;50.948;-1.458;2022-07-29T03:57:27;101405.37;;;17.42;13.74
70571;BME280;58135;50.948;-1.458;2022-07-29T03:59:51;101402.01;;;15.72;13.72
70571;BME280;58135;50.948;-1.458;2022-07-29T04:02:16;101404.35;;;17.49;13.69
70571;BME280;58135;50.948;-1.458;2022-07-29T04:04:41;101410.22;;;17.51;13.73
70571;BME280;58135;50.948;-1.458;2022-07-29T04:07:07;101417.61;;;18.39;13.75
70571;BME280;58135;50.948;-1.458;2022-07-29T04:09:32;101418.50;;;16.63;13.79
70571;BME280;58135;50.948;-1.458;2022-07-29T04:11:58;101414.54;;;15.82;13.67
70571;BME280;58135;50.948;-1.458;2022-07-29T04:14:24;101415.71;;;16.70;13.69
70571;BME280;58135;50.948;-1.458;2022-07-29T04:16:49;101416.40;;;16.65;13.63
70571;BME280;58135;50.948;-1.458;2022-07-29T04:19:15;101416.60;;;17.55;13.66
70571;BME280;58135;50.948;-1.458;2022-07-29T04:21:40;101420.10;;;15.65;13.72
70571;BME280;58135;50.948;-1.458;2022-07-29T04:24:07;101417.98;;;17.37;13.81
70571;BME280;58135;50.948;-1.458;2022-07-29T04:26:31;101414.95;;;15.62;13.76
70571;BME280;58135;50.948;-1.458;2022-07-29T04:28:58;101413.08;;;17.40;13.83
70571;BME280;58135;50.948;-1.458;2022-07-29T04:31:22;101412.11;;;16.50;13.72
70571;BME280;58135;50.948;-1.458;2022-07-29T04:33:53;101411.33;;;16.46;13.87
70571;BME280;58135;50.948;-1.458;2022-07-29T04:36:13;101414.10;;;17.23;14.36
70571;BME280;58135;50.948;-1.458;2022-07-29T04:38:39;101416.40;;;17.19;14.48
70571;BME280;58135;50.948;-1.458;2022-07-29T04:41:05;101416.05;;;16.92;14.74
70571;BME280;58135;50.948;-1.458;2022-07-29T04:43:30;101415.46;;;15.89;14.70
70571;BME280;58135;50.948;-1.458;2022-07-29T04:45:56;101413.05;;;15.36;14.67
70571;BME280;58135;50.948;-1.458;2022-07-29T04:48:21;101412.12;;;15.04;14.69
70571;BME280;58135;50.948;-1.458;2022-07-29T04:50:47;101412.78;;;14.86;15.03
70571;BME280;58135;50.948;-1.458;2022-07-29T04:53:13;101417.53;;;15.57;14.89
70571;BME280;58135;50.948;-1.458;2022-07-29T04:55:38;101414.82;;;15.86;15.19
70571;BME280;58135;50.948;-1.458;2022-07-29T04:58:04;101416.24;;;16.80;15.08
70571;BME280;58135;50.948;-1.458;2022-07-29T05:00:29;101416.22;;;15.96;15.21
70571;BME280;58135;50.948;-1.458;2022-07-29T05:02:55;101420.70;;;16.51;15.25
70571;BME280;58135;50.948;-1.458;2022-07-29T05:05:26;101417.62;;;17.30;15.38
70571;BME280;58135;50.948;-1.458;2022-07-29T05:07:46;101418.87;;;13.79;15.17
70571;BME280;58135;50.948;-1.458;2022-07-29T05:10:12;101418.95;;;15.33;14.97
70571;BME280;58135;50.948;-1.458;2022-07-29T05:12:37;101418.98;;;16.34;15.56
70571;BME280;58135;50.948;-1.458;2022-07-29T05:15:04;101414.91;;;15.78;14.52
70571;BME280;58135;50.948;-1.458;2022-07-29T05:17:29;101411.74;;;17.14;15.19
70571;BME280;58135;50.948;-1.458;2022-07-29T05:19:54;101413.76;;;15.84;15.04
70571;BME280;58135;50.948;-1.458;2022-07-29T05:22:20;101417.04;;;16.05;15.15
70571;BME280;58135;50.948;-1.458;2022-07-29T05:24:55;101429.26;;;14.98;14.65
70571;BME280;58135;50.948;-1.458;2022-07-29T05:27:11;101434.60;;;16.48;15.20
70571;BME280;58135;50.948;-1.458;2022-07-29T05:29:41;101437.79;;;14.84;15.29
70571;BME280;58135;50.948;-1.458;2022-07-29T05:32:07;101432.92;;;15.38;15.51
70571;BME280;58135;50.948;-1.458;2022-07-29T05:34:28;101434.65;;;14.52;15.29
70571;BME280;58135;50.948;-1.458;2022-07-29T05:36:53;101437.22;;;15.64;15.26
70571;BME280;58135;50.948;-1.458;2022-07-29T05:39:19;101440.97;;;14.80;14.90
70571;BME280;58135;50.948;-1.458;2022-07-29T05:41:44;101444.93;;;16.54;15.20
70571;BME280;58135;50.948;-1.458;2022-07-29T05:44:10;101446.92;;;16.30;15.07
70571;BME280;58135;50.948;-1.458;2022-07-29T05:46:35;101446.24;;;16.73;15.22
70571;BME280;58135;50.948;-1.458;2022-07-29T05:49:02;101442.88;;;15.59;14.80
70571;BME280;58135;50.948;-1.458;2022-07-29T05:51:26;101441.01;;;17.67;14.16
70571;BME280;58135;50.948;-1.458;2022-07-29T05:53:52;101440.46;;;17.40;14.85
70571;BME280;58135;50.948;-1.458;2022-07-29T05:56:17;101438.99;;;17.29;14.64
70571;BME280;58135;50.948;-1.458;2022-07-29T05:58:43;101435.59;;;17.78;14.26
70571;BME280;58135;50.948;-1.458;2022-07-29T06:01:10;101437.85;;;17.11;14.68
70571;BME280;58135;50.948;-1.458;2022-07-29T06:03:35;101439.33;;;17.13;14.81
70571;BME280;58135;50.948;-1.458;2022-07-29T06:06:00;101441.44;;;16.38;14.66
70571;BME280;58135;50.948;-1.458;2022-07-29T06:08:25;101441.17;;;18.12;14.74
70571;BME280;58135;50.948;-1.458;2022-07-29T06:10:53;101442.52;;;17.60;14.69
70571;BME280;58135;50.948;-1.458;2022-07-29T06:13:16;101445.09;;;17.51;14.61
70571;BME280;58135;50.948;-1.458;2022-07-29T06:15:43;101446.83;;;16.61;14.67
70571;BME280;58135;50.948;-1.458;2022-07-29T06:18:17;101449.18;;;17.62;14.80
70571;BME280;58135;50.948;-1.458;2022-07-29T06:20:34;101446.27;;;20.42;14.92
70571;BME280;58135;50.948;-1.458;2022-07-29T06:23:04;101446.00;;;16.37;15.41
70571;BME280;58135;50.948;-1.458;2022-07-29T06:25:24;101444.52;;;17.83;15.40
70571;BME280;58135;50.948;-1.458;2022-07-29T06:27:55;101443.78;;;16.09;15.02
70571;BME280;58135;50.948;-1.458;2022-07-29T06:30:15;101448.68;;;17.26;15.28
70571;BME280;58135;50.948;-1.458;2022-07-29T06:32:41;101452.70;;;17.27;15.21
70571;BME280;58135;50.948;-1.458;2022-07-29T06:35:07;101451.39;;;17.60;14.74
70571;BME280;58135;50.948;-1.458;2022-07-29T06:37:32;101455.95;;;15.70;14.97
70571;BME280;58135;50.948;-1.458;2022-07-29T06:39:57;101457.86;;;16.63;15.72
70571;BME280;58135;50.948;-1.458;2022-07-29T06:42:23;101460.50;;;16.26;15.77
70571;BME280;58135;50.948;-1.458;2022-07-29T06:44:50;101463.55;;;18.29;15.20
70571;BME280;58135;50.948;-1.458;2022-07-29T06:47:14;101462.13;;;18.00;15.36
70571;BME280;58135;50.948;-1.458;2022-07-29T06:49:50;101463.59;;;16.86;15.12
70571;BME280;58135;50.948;-1.458;2022-07-29T06:52:05;101466.18;;;17.14;15.02
70571;BME280;58135;50.948;-1.458;2022-07-29T06:54:31;101468.27;;;18.06;15.81
70571;BME280;58135;50.948;-1.458;2022-07-29T06:56:58;101468.32;;;16.77;15.74
70571;BME280;58135;50.948;-1.458;2022-07-29T06:59:30;101466.11;;;18.57;15.20
70571;BME280;58135;50.948;-1.458;2022-07-29T07:01:48;101469.73;;;17.99;15.61
70571;BME280;58135;50.948;-1.458;2022-07-29T07:04:21;101471.86;;;17.38;14.54
70571;BME280;58135;50.948;-1.458;2022-07-29T07:06:49;101473.64;;;17.48;15.38
70571;BME280;58135;50.948;-1.458;2022-07-29T07:09:06;101471.00;;;17.08;15.55
70571;BME280;58135;50.948;-1.458;2022-07-29T07:11:29;101469.64;;;15.33;15.77
70571;BME280;58135;50.948;-1.458;2022-07-29T07:14:15;101468.16;;;17.73;15.40
70571;BME280;58135;50.948;-1.458;2022-07-29T07:16:31;101473.18;;;18.53;15.50
70571;BME280;58135;50.948;-1.458;2022-07-29T07:18:59;101475.40;;;16.75;15.33
70571;BME280;58135;50.948;-1.458;2022-07-29T07:21:12;101471.11;;;19.19;14.65
70571;BME280;58135;50.948;-1.458;2022-07-29T07:23:42;101471.75;;;16.91;14.90
70571;BME280;58135;50.948;-1.458;2022-07-29T07:26:22;101474.44;;;17.82;14.41
70571;BME280;58135;50.948;-1.458;2022-07-29T07:28:33;101476.86;;;17.34;14.32
70571;BME280;58135;50.948;-1.458;2022-07-29T07:30:55;101481.14;;;21.14;14.54
70571;BME280;58135;50.948;-1.458;2022-07-29T07:33:19;101486.44;;;19.05;14.76
70571;BME280;58135;50.948;-1.458;2022-07-29T07:35:45;101490.74;;;18.26;14.00
70571;BME280;58135;50.948;-1.458;2022-07-29T07:38:10;101488.88;;;18.08;14.09
70571;BME280;58135;50.948;-1.458;2022-07-29T07:40:38;101491.07;;;16.84;13.99
70571;BME280;58135;50.948;-1.458;2022-07-29T07:43:08;101494.08;;;18.34;14.23
70571;BME280;58135;50.948;-1.458;2022-07-29T07:45:28;101491.86;;;17.23;13.19
70571;BME280;58135;50.948;-1.458;2022-07-29T07:48:01;101497.24;;;20.24;13.45
70571;BME280;58135;50.948;-1.458;2022-07-29T07:50:19;101498.12;;;19.27;13.47
70571;BME280;58135;50.948;-1.458;2022-07-29T07:52:48;101492.06;;;16.45;13.00
70571;BME280;58135;50.948;-1.458;2022-07-29T07:55:09;101492.68;;;20.24;12.63
70571;BME280;58135;50.948;-1.458;2022-07-29T07:57:35;101497.34;;;18.91;12.73
70571;BME280;58135;50.948;-1.458;2022-07-29T08:00:01;101497.37;;;20.99;12.45
70571;BME280;58135;50.948;-1.458;2022-07-29T08:02:26;101498.17;;;19.22;12.09
70571;BME280;58135;50.948;-1.458;2022-07-29T08:04:51;101494.85;;;17.75;12.72
70571;BME280;58135;50.948;-1.458;2022-07-29T08:07:24;101493.45;;;19.07;12.79
70571;BME280;58135;50.948;-1.458;2022-07-29T08:09:42;101496.34;;;20.31;12.15
70571;BME280;58135;50.948;-1.458;2022-07-29T08:12:12;101492.90;;;19.27;12.20
70571;BME280;58135;50.948;-1.458;2022-07-29T08:14:38;101491.44;;;18.97;12.20
70571;BME280;58135;50.948;-1.458;2022-07-29T08:17:03;101489.76;;;21.11;11.72
70571;BME280;58135;50.948;-1.458;2022-07-29T08:19:24;101491.14;;;20.32;11.67
70571;BME280;58135;50.948;-1.458;2022-07-29T08:21:52;101489.19;;;21.50;11.36
70571;BME280;58135;50.948;-1.458;2022-07-29T08:24:16;101485.18;;;20.04;11.66
70571;BME280;58135;50.948;-1.458;2022-07-29T08:26:40;101476.91;;;19.63;11.10
70571;BME280;58135;50.948;-1.458;2022-07-29T08:29:18;101476.90;;;21.48;11.10
70571;BME280;58135;50.948;-1.458;2022-07-29T08:31:32;101478.31;;;19.80;11.25
70571;BME280;58135;50.948;-1.458;2022-07-29T08:33:58;101480.86;;;21.97;10.92
70571;BME280;58135;50.948;-1.458;2022-07-29T08:36:28;101477.65;;;21.23;10.56
70571;BME280;58135;50.948;-1.458;2022-07-29T08:38:47;101480.12;;;18.72;10.92
70571;BME280;58135;50.948;-1.458;2022-07-29T08:41:17;101485.08;;;24.08;10.80
70571;BME280;58135;50.948;-1.458;2022-07-29T08:43:40;101482.29;;;21.56;10.48
70571;BME280;58135;50.948;-1.458;2022-07-29T08:46:08;101484.16;;;21.29;10.54
70571;BME280;58135;50.948;-1.458;2022-07-29T08:48:34;101478.85;;;21.70;10.32
70571;BME280;58135;50.948;-1.458;2022-07-29T08:50:56;101489.55;;;21.92;10.03
70571;BME280;58135;50.948;-1.458;2022-07-29T08:53:21;101488.51;;;21.97;9.89
70571;BME280;58135;50.948;-1.458;2022-07-29T08:55:47;101484.63;;;21.20;10.26
70571;BME280;58135;50.948;-1.458;2022-07-29T08:58:11;101483.35;;;20.62;9.95
70571;BME280;58135;50.948;-1.458;2022-07-29T09:00:37;101480.36;;;20.35;9.84
70571;BME280;58135;50.948;-1.458;2022-07-29T09:03:02;101479.23;;;19.88;10.10
70571;BME280;58135;50.948;-1.458;2022-07-29T09:05:28;101478.20;;;20.41;9.77
70571;BME280;58135;50.948;-1.458;2022-07-29T09:07:53;101483.27;;;19.72;9.70
70571;BME280;58135;50.948;-1.458;2022-07-29T09:10:18;101485.56;;;22.40;9.72
70571;BME280;58135;50.948;-1.458;2022-07-29T09:12:44;101488.04;;;21.89;9.95
70571;BME280;58135;50.948;-1.458;2022-07-29T09:15:09;101489.84;;;21.38;9.68
70571;BME280;58135;50.948;-1.458;2022-07-29T09:17:41;101486.87;;;21.22;9.38
70571;BME280;58135;50.948;-1.458;2022-07-29T09:20:09;101491.54;;;20.29;9.83
70571;BME280;58135;50.948;-1.458;2022-07-29T09:22:29;101487.61;;;21.75;9.59
70571;BME280;58135;50.948;-1.458;2022-07-29T09:24:51;101484.42;;;20.07;9.55
70571;BME280;58135;50.948;-1.458;2022-07-29T09:27:23;101481.00;;;21.26;9.48
70571;BME280;58135;50.948;-1.458;2022-07-29T09:29:42;101479.51;;;23.40;9.30
70571;BME280;58135;50.948;-1.458;2022-07-29T09:32:09;101480.19;;;22.62;8.96
70571;BME280;58135;50.948;-1.458;2022-07-29T09:34:33;101480.58;;;21.62;9.33
70571;BME280;58135;50.948;-1.458;2022-07-29T09:36:58;101478.42;;;22.14;9.33
70571;BME280;58135;50.948;-1.458;2022-07-29T09:39:30;101477.06;;;21.78;8.73
70571;BME280;58135;50.948;-1.458;2022-07-29T09:41:51;101478.28;;;23.86;8.78
70571;BME280;58135;50.948;-1.458;2022-07-29T09:44:16;101479.58;;;21.44;8.42
70571;BME280;58135;50.948;-1.458;2022-07-29T09:46:56;101483.67;;;21.49;8.82
70571;BME280;58135;50.948;-1.458;2022-07-29T09:49:07;101483.88;;;23.63;8.15
70571;BME280;58135;50.948;-1.458;2022-07-29T09:51:31;101488.47;;;23.76;8.55
70571;BME280;58135;50.948;-1.458;2022-07-29T09:53:57;101480.82;;;21.93;7.59
70571;BME280;58135;50.948;-1.458;2022-07-29T09:58:48;101477.56;;;22.97;7.46
70571;BME280;58135;50.948;-1.458;2022-07-29T10:01:13;101474.74;;;22.06;7.99
70571;BME280;58135;50.948;-1.458;2022-07-29T10:03:50;101475.86;;;23.03;7.81
70571;BME280;58135;50.948;-1.458;2022-07-29T10:06:06;101473.97;;;23.22;7.93
70571;BME280;58135;50.948;-1.458;2022-07-29T10:08:29;101473.97;;;24.27;7.36
70571;BME280;58135;50.948;-1.458;2022-07-29T10:13:21;101471.08;;;22.20;7.89
70571;BME280;58135;50.948;-1.458;2022-07-29T10:15:46;101468.21;;;22.77;7.95
70571;BME280;58135;50.948;-1.458;2022-07-29T10:18:13;101470.99;;;22.40;8.10
70571;BME280;58135;50.948;-1.458;2022-07-29T10:20:44;101469.57;;;23.11;7.45
70571;BME280;58135;50.948;-1.458;2022-07-29T10:23:08;101474.32;;;24.37;7.03
70571;BME280;58135;50.948;-1.458;2022-07-29T10:25:28;101471.76;;;23.79;7.46
70571;BME280;58135;50.948;-1.458;2022-07-29T10:27:54;101472.35;;;24.23;6.95
70571;BME280;58135;50.948;-1.458;2022-07-29T10:30:20;101477.05;;;24.20;7.29
70571;BME280;58135;50.948;-1.458;2022-07-29T10:32:54;101475.56;;;23.43;7.39
70571;BME280;58135;50.948;-1.458;2022-07-29T10:35:26;101469.17;;;23.80;7.08
70571;BME280;58135;50.948;-1.458;2022-07-29T10:37:58;101469.10;;;22.92;7.39
70571;BME280;58135;50.948;-1.458;2022-07-29T10:40:15;101470.75;;;23.59;6.95
70571;BME280;58135;50.948;-1.458;2022-07-29T10:42:28;101473.13;;;23.67;7.45
70571;BME280;58135;50.948;-1.458;2022-07-29T10:44:53;101470.18;;;24.32;6.92
70571;BME280;58135;50.948;-1.458;2022-07-29T10:47:22;101467.53;;;21.87;7.13
70571;BME280;58135;50.948;-1.458;2022-07-29T10:52:13;101466.21;;;24.01;8.28
70571;BME280;58135;50.948;-1.458;2022-07-29T10:54:41;101464.11;;;22.34;7.22
70571;BME280;58135;50.948;-1.458;2022-07-29T10:59:29;101461.30;;;25.41;6.91
70571;BME280;58135;50.948;-1.458;2022-07-29T11:01:50;101465.41;;;22.58;6.79
70571;BME280;58135;50.948;-1.458;2022-07-29T11:04:15;101471.02;;;23.94;7.29
70571;BME280;58135;50.948;-1.458;2022-07-29T11:09:21;101474.36;;;25.42;6.92
70571;BME280;58135;50.948;-1.458;2022-07-29T11:11:32;101475.12;;;26.00;6.58
70571;BME280;58135;50.948;-1.458;2022-07-29T11:14:02;101477.02;;;24.99;7.04
70571;BME280;58135;50.948;-1.458;2022-07-29T11:16:23;101476.60;;;25.18;6.92
70571;BME280;58135;50.948;-1.458;2022-07-29T11:23:39;101473.09;;;24.71;6.46
70571;BME280;58135;50.948;-1.458;2022-07-29T11:26:15;101471.19;;;23.19;6.34
70571;BME280;58135;50.948;-1.458;2022-07-29T11:28:30;101474.60;;;24.61;6.78
70571;BME280;58135;50.948;-1.458;2022-07-29T11:30:57;101473.94;;;24.03;6.59
70571;BME280;58135;50.948;-1.458;2022-07-29T11:33:29;101471.35;;;25.72;6.65
70571;BME280;58135;50.948;-1.458;2022-07-29T11:38:24;101467.21;;;23.53;7.07
70571;BME280;58135;50.948;-1.458;2022-07-29T11:40:44;101468.52;;;25.72;7.27
70571;BME280;58135;50.948;-1.458;2022-07-29T11:43:04;101468.07;;;26.18;6.61
70571;BME280;58135;50.948;-1.458;2022-07-29T11:45:47;101467.07;;;28.48;6.47
70571;BME280;58135;50.948;-1.458;2022-07-29T11:47:59;101470.16;;;29.92;5.48
70571;BME280;58135;50.948;-1.458;2022-07-29T11:50:37;101464.29;;;33.11;5.34
70571;BME280;58135;50.948;-1.458;2022-07-29T11:55:23;101462.40;;;34.81;3.69
70571;BME280;58135;50.948;-1.458;2022-07-29T11:58:20;101463.62;;;35.95;2.81
70571;BME280;58135;50.948;-1.458;2022-07-29T12:00:23;101451.56;;;36.70;2.45
70571;BME280;58135;50.948;-1.458;2022-07-29T12:02:45;101449.05;;;35.76;2.60
70571;BME280;58135;50.948;-1.458;2022-07-29T12:05:06;101449.87;;;38.26;2.22
70571;BME280;58135;50.948;-1.458;2022-07-29T12:07:33;101451.54;;;40.40;2.15
70571;BME280;58135;50.948;-1.458;2022-07-29T12:09:50;101455.63;;;40.45;1.90
70571;BME280;58135;50.948;-1.458;2022-07-29T12:12:10;101452.38;;;39.70;1.65
70571;BME280;58135;50.948;-1.458;2022-07-29T12:14:40;101447.98;;;40.83;1.62
70571;BME280;58135;50.948;-1.458;2022-07-29T12:19:26;101442.29;;;42.12;0.71
70571;BME280;58135;50.948;-1.458;2022-07-29T12:22:02;101439.14;;;42.92;0.85
70571;BME280;58135;50.948;-1.458;2022-07-29T12:24:16;101436.39;;;41.91;0.30
70571;BME280;58135;50.948;-1.458;2022-07-29T12:26:51;101432.58;;;41.58;0.19
70571;BME280;58135;50.948;-1.458;2022-07-29T12:29:14;101431.55;;;43.18;0.86
70571;BME280;58135;50.948;-1.458;2022-07-29T12:31:42;101430.97;;;40.95;0.20
70571;BME280;58135;50.948;-1.458;2022-07-29T12:34:07;101426.17;;;41.58;0.82
70571;BME280;58135;50.948;-1.458;2022-07-29T12:36:22;101427.41;;;43.22;0.00
70571;BME280;58135;50.948;-1.458;2022-07-29T12:38:49;101428.43;;;44.29;0.00
70571;BME280;58135;50.948;-1.458;2022-07-29T12:41:30;101425.03;;;44.93;0.35
70571;BME280;58135;50.948;-1.458;2022-07-29T12:44:15;101419.78;;;43.00;0.38
70571;BME280;58135;50.948;-1.458;2022-07-29T12:46:17;101418.29;;;40.31;0.29
70571;BME280;58135;50.948;-1.458;2022-07-29T14:50:33;101410.88;;;24.01;3.75
70571;BME280;58135;50.948;-1.458;2022-07-29T15:33:12;101418.81;;;27.62;6.17
70571;BME280;58135;50.948;-1.458;2022-07-29T15:35:11;101419.88;;;23.13;5.49
70571;BME280;58135;50.948;-1.458;2022-07-29T15:39:58;101422.37;;;23.38;4.71
70571;BME280;58135;50.948;-1.458;2022-07-29T15:41:56;101424.88;;;29.25;5.88